createdAt,value
2023-02-04T00:00:49.229Z,21.95
2023-02-04T00:02:21.406Z,20.90
2023-02-04T00:03:54.571Z,21.58
2023-02-04T00:05:29.278Z,20.73
2023-02-04T00:07:02.421Z,19.80
2023-02-04T00:08:37.634Z,19.40
2023-02-04T00:10:11.808Z,19.20
2023-02-04T00:11:45.813Z,20.83
2023-02-04T00:13:18.910Z,19.88
2023-02-04T00:14:51.152Z,20.10
2023-02-04T00:16:24.305Z,19.65
2023-02-04T00:17:57.830Z,21.65
2023-02-04T00:19:30.907Z,25.90
2023-02-04T00:21:06.024Z,26.10
2023-02-04T00:22:39.132Z,21.25
2023-02-04T00:24:11.408Z,18.83
2023-02-04T00:25:44.511Z,18.65
2023-02-04T00:27:17.503Z,15.57
2023-02-04T00:28:50.691Z,14.38
2023-02-04T00:30:22.990Z,14.45
2023-02-04T00:31:56.542Z,15.43
2023-02-04T00:33:30.143Z,14.88
2023-02-04T00:35:04.850Z,15.13
2023-02-04T00:36:39.473Z,14.13
2023-02-04T00:38:12.785Z,14.75
2023-02-04T00:39:46.974Z,13.75
2023-02-04T00:41:20.353Z,14.32
2023-02-04T00:42:53.630Z,13.30
2023-02-04T00:44:25.929Z,11.52
2023-02-04T00:45:59.437Z,12.32
2023-02-04T00:47:32.690Z,11.90
2023-02-04T00:49:10.571Z,12.38
2023-02-04T00:50:43.741Z,14.93
2023-02-04T00:52:19.254Z,10.82
2023-02-04T00:53:53.550Z,10.38
2023-02-04T00:55:26.916Z,10.98
2023-02-04T00:57:00.439Z,11.77
2023-02-04T00:58:34.008Z,11.75
2023-02-04T01:00:09.000Z,12.40
2023-02-04T01:01:42.313Z,11.57
2023-02-04T01:03:15.469Z,9.68
2023-02-04T01:04:48.845Z,9.40
2023-02-04T01:06:22.766Z,8.75
2023-02-04T01:07:57.977Z,9.05
2023-02-04T01:09:32.469Z,11.73
2023-02-04T01:11:05.857Z,11.15
2023-02-04T01:12:39.082Z,13.07
2023-02-04T01:14:12.638Z,10.13
2023-02-04T01:15:44.819Z,10.23
2023-02-04T01:17:19.269Z,9.35
2023-02-04T01:18:55.969Z,9.95
2023-02-04T01:20:31.219Z,9.32
2023-02-04T01:22:03.447Z,9.05
2023-02-04T01:23:38.302Z,9.15
2023-02-04T01:25:12.046Z,7.07
2023-02-04T01:26:48.659Z,9.80
2023-02-04T01:28:23.039Z,8.82
2023-02-04T01:29:55.470Z,8.00
2023-02-04T01:31:31.461Z,5.95
2023-02-04T01:33:04.850Z,6.80
2023-02-04T01:34:36.966Z,6.22
2023-02-04T01:36:10.625Z,7.72
2023-02-04T01:37:43.800Z,5.88
2023-02-04T01:39:17.568Z,6.50
2023-02-04T01:40:53.719Z,7.20
2023-02-04T01:42:28.428Z,7.90
2023-02-04T01:44:01.616Z,7.97
2023-02-04T01:45:35.836Z,7.32
2023-02-04T01:47:09.130Z,6.85
2023-02-04T01:48:42.765Z,7.00
2023-02-04T01:50:18.485Z,6.45
2023-02-04T01:51:52.025Z,6.15
2023-02-04T01:53:27.600Z,5.93
2023-02-04T01:55:02.210Z,6.10
2023-02-04T01:56:35.703Z,5.45
2023-02-04T01:58:11.680Z,6.20
2023-02-04T01:59:45.494Z,5.05
2023-02-04T02:01:37.141Z,7.80
2023-02-04T02:03:12.168Z,9.25
2023-02-04T02:04:45.496Z,8.95
2023-02-04T02:06:18.597Z,7.97
2023-02-04T02:07:57.681Z,5.82
2023-02-04T02:09:33.281Z,5.50
2023-02-04T02:11:08.133Z,4.60
2023-02-04T02:12:40.812Z,4.53
2023-02-04T02:14:15.207Z,6.05
2023-02-04T02:15:49.338Z,6.05
2023-02-04T02:17:21.552Z,5.45
2023-02-04T02:18:54.794Z,6.07
2023-02-04T02:20:29.862Z,6.35
2023-02-04T02:22:10.589Z,6.10
2023-02-04T02:23:51.037Z,7.55
2023-02-04T02:25:24.682Z,13.65
2023-02-04T02:26:59.715Z,11.15
2023-02-04T02:28:32.831Z,9.73
2023-02-04T02:30:07.879Z,19.88
2023-02-04T02:31:41.799Z,10.95
2023-02-04T02:33:17.326Z,7.95
2023-02-04T02:34:50.447Z,6.80
2023-02-04T02:36:24.135Z,6.70
2023-02-04T02:37:58.026Z,8.27
2023-02-04T02:39:31.906Z,7.85
2023-02-04T02:41:09.031Z,9.43
2023-02-04T02:42:44.167Z,9.05
2023-02-04T02:44:19.128Z,8.32
2023-02-04T02:45:53.086Z,8.32
2023-02-04T02:47:26.704Z,8.93
2023-02-04T02:49:00.334Z,11.30
2023-02-04T02:50:34.797Z,9.05
2023-02-04T02:52:10.606Z,10.77
2023-02-04T02:53:43.821Z,8.30
2023-02-04T02:55:20.987Z,8.02
2023-02-04T02:56:54.769Z,9.77
2023-02-04T02:58:32.812Z,7.82
2023-02-04T03:00:15.521Z,8.18
2023-02-04T03:01:54.246Z,8.00
2023-02-04T03:03:31.428Z,7.43
2023-02-04T03:05:04.949Z,8.20
2023-02-04T03:06:37.691Z,6.88
2023-02-04T03:08:12.546Z,8.75
2023-02-04T03:09:45.833Z,8.45
2023-02-04T03:11:20.423Z,8.35
2023-02-04T03:12:54.181Z,8.23
2023-02-04T03:14:28.225Z,8.20
2023-02-04T03:16:01.139Z,7.70
2023-02-04T03:17:35.825Z,9.02
2023-02-04T03:19:09.960Z,15.48
2023-02-04T03:20:44.150Z,9.85
2023-02-04T03:22:17.533Z,12.32
2023-02-04T03:23:51.511Z,12.35
2023-02-04T03:25:26.655Z,12.90
2023-02-04T03:27:02.557Z,12.45
2023-02-04T03:28:40.217Z,10.13
2023-02-04T03:30:15.919Z,12.85
2023-02-04T03:31:49.188Z,13.82
2023-02-04T03:33:22.963Z,14.88
2023-02-04T03:34:56.188Z,17.02
2023-02-04T03:36:29.478Z,14.50
2023-02-04T03:38:02.618Z,13.48
2023-02-04T03:39:36.281Z,14.40
2023-02-04T03:41:09.669Z,16.52
2023-02-04T03:42:44.536Z,14.38
2023-02-04T03:44:18.878Z,13.48
2023-02-04T03:45:52.323Z,12.57
2023-02-04T03:47:25.487Z,12.40
2023-02-04T03:48:58.984Z,13.15
2023-02-04T03:50:32.314Z,13.95
2023-02-04T03:52:06.487Z,12.73
2023-02-04T03:53:39.616Z,13.25
2023-02-04T03:55:11.892Z,12.57
2023-02-04T03:56:44.941Z,14.15
2023-02-04T03:58:20.185Z,16.00
2023-02-04T03:59:52.301Z,15.80
2023-02-04T04:01:25.802Z,16.73
2023-02-04T04:02:59.148Z,16.13
2023-02-04T04:04:31.668Z,14.80
2023-02-04T04:06:06.469Z,17.95
2023-02-04T04:07:40.031Z,18.08
2023-02-04T04:09:13.240Z,16.55
2023-02-04T04:10:46.597Z,15.68
2023-02-04T04:12:18.815Z,16.73
2023-02-04T04:13:53.527Z,14.85
2023-02-04T04:15:26.691Z,16.63
2023-02-04T04:16:59.929Z,19.42
2023-02-04T04:18:32.805Z,18.70
2023-02-04T04:20:06.961Z,16.77
2023-02-04T04:21:40.124Z,26.95
2023-02-04T04:23:12.354Z,14.43
2023-02-04T04:24:45.590Z,16.17
2023-02-04T04:26:19.061Z,16.17
2023-02-04T04:27:52.327Z,15.18
2023-02-04T04:29:26.960Z,12.68
2023-02-04T04:31:00.234Z,12.57
2023-02-04T04:32:32.526Z,14.25
2023-02-04T04:34:05.718Z,18.88
2023-02-04T04:35:38.922Z,19.02
2023-02-04T04:37:12.096Z,17.42
2023-02-04T04:38:44.501Z,11.88
2023-02-04T04:40:17.655Z,14.63
2023-02-04T04:41:51.008Z,26.60
2023-02-04T04:43:24.276Z,13.57
2023-02-04T04:44:58.114Z,11.50
2023-02-04T04:46:31.282Z,11.93
2023-02-04T04:48:04.857Z,12.52
2023-02-04T04:49:37.065Z,13.68
2023-02-04T04:51:10.356Z,12.30
2023-02-04T04:52:42.555Z,10.18
2023-02-04T04:54:15.716Z,13.13
2023-02-04T04:55:48.828Z,13.85
2023-02-04T04:57:21.324Z,16.73
2023-02-04T04:58:54.457Z,13.73
2023-02-04T05:00:29.460Z,13.80
2023-02-04T05:02:02.683Z,12.18
2023-02-04T05:03:35.092Z,13.57
2023-02-04T05:05:08.381Z,19.55
2023-02-04T05:06:41.554Z,14.02
2023-02-04T05:08:16.993Z,11.70
2023-02-04T05:09:50.218Z,9.13
2023-02-04T05:11:23.331Z,8.88
2023-02-04T05:12:56.432Z,9.63
2023-02-04T05:14:29.684Z,16.73
2023-02-04T05:16:04.294Z,25.90
2023-02-04T05:17:37.508Z,14.13
2023-02-04T05:19:10.657Z,13.18
2023-02-04T05:20:43.714Z,12.02
2023-02-04T05:22:16.934Z,13.48
2023-02-04T05:23:50.032Z,14.13
2023-02-04T05:25:23.454Z,12.77
2023-02-04T05:26:56.573Z,11.75
2023-02-04T05:28:30.090Z,13.90
2023-02-04T05:30:03.199Z,16.10
2023-02-04T05:31:38.236Z,15.50
2023-02-04T05:33:11.285Z,17.05
2023-02-04T05:34:43.590Z,15.50
2023-02-04T05:36:17.973Z,13.20
2023-02-04T05:37:51.432Z,26.83
2023-02-04T05:39:24.573Z,24.98
2023-02-04T05:40:56.934Z,13.80
2023-02-04T05:42:30.077Z,10.95
2023-02-04T05:44:03.446Z,13.38
2023-02-04T05:45:36.591Z,11.65
2023-02-04T05:47:11.430Z,12.93
2023-02-04T05:48:44.513Z,16.63
2023-02-04T05:50:17.885Z,16.45
2023-02-04T05:51:51.005Z,10.95
2023-02-04T05:53:26.119Z,24.35
2023-02-04T05:54:59.440Z,21.90
2023-02-04T05:56:32.646Z,23.52
2023-02-04T05:58:05.725Z,24.75
2023-02-04T05:59:38.969Z,25.60
2023-02-04T06:01:12.169Z,21.88
2023-02-04T06:02:46.641Z,27.70
2023-02-04T06:04:19.991Z,19.40
2023-02-04T06:05:53.735Z,12.25
2023-02-04T06:07:26.942Z,10.60
2023-02-04T06:09:00.111Z,15.05
2023-02-04T06:10:33.554Z,11.98
2023-02-04T06:12:07.221Z,11.13
2023-02-04T06:13:40.318Z,13.75
2023-02-04T06:15:13.460Z,14.07
2023-02-04T06:16:46.706Z,14.23
2023-02-04T06:18:21.717Z,13.30
2023-02-04T06:19:54.816Z,14.77
2023-02-04T06:21:28.137Z,15.20
2023-02-04T06:23:00.257Z,15.65
2023-02-04T06:24:33.750Z,17.45
2023-02-04T06:26:06.088Z,16.42
2023-02-04T06:27:39.398Z,15.07
2023-02-04T06:29:12.605Z,14.65
2023-02-04T06:30:46.110Z,14.10
2023-02-04T06:32:19.939Z,14.18
2023-02-04T06:33:54.505Z,14.00
2023-02-04T06:35:27.731Z,14.02
2023-02-04T06:37:01.052Z,12.70
2023-02-04T06:38:34.234Z,12.05
2023-02-04T06:40:09.054Z,9.93
2023-02-04T06:41:42.171Z,10.85
2023-02-04T06:43:15.666Z,10.32
2023-02-04T06:44:48.777Z,11.05
2023-02-04T06:46:21.077Z,11.60
2023-02-04T06:47:54.285Z,9.55
2023-02-04T06:49:29.280Z,8.68
2023-02-04T06:51:02.380Z,8.60
2023-02-04T06:52:35.566Z,8.80
2023-02-04T06:54:08.700Z,14.20
2023-02-04T06:55:42.114Z,15.75
2023-02-04T06:57:15.204Z,15.27
2023-02-04T06:58:48.607Z,20.55
2023-02-04T07:00:22.255Z,25.73
2023-02-04T07:01:55.515Z,17.02
2023-02-04T07:03:28.634Z,17.08
2023-02-04T07:05:03.296Z,12.57
2023-02-04T07:06:35.316Z,11.77
2023-02-04T07:08:08.646Z,52.00
2023-02-04T07:09:40.794Z,35.03
2023-02-04T07:11:14.062Z,33.50
2023-02-04T07:12:47.198Z,34.70
2023-02-04T07:14:20.614Z,24.15
2023-02-04T07:15:53.763Z,59.58
2023-02-04T07:17:27.072Z,47.78
2023-02-04T07:19:00.230Z,33.17
2023-02-04T07:20:36.095Z,15.63
2023-02-04T07:22:09.238Z,30.08
2023-02-04T07:23:42.541Z,5.82
2023-02-04T07:25:17.972Z,5.63
2023-02-04T07:26:51.286Z,4.07
2023-02-04T07:28:24.659Z,3.53
2023-02-04T07:29:57.885Z,4.75
2023-02-04T07:31:31.116Z,5.57
2023-02-04T07:33:03.580Z,2.15
2023-02-04T07:34:36.738Z,2.63
2023-02-04T07:36:11.983Z,5.47
2023-02-04T07:37:45.752Z,11.88
2023-02-04T07:39:18.162Z,4.18
2023-02-04T07:40:51.352Z,5.95
2023-02-04T07:42:23.907Z,3.40
2023-02-04T07:44:05.920Z,4.30
2023-02-04T07:45:39.298Z,5.07
2023-02-04T07:47:12.734Z,3.05
2023-02-04T07:48:46.171Z,4.03
2023-02-04T07:50:19.378Z,4.10
2023-02-04T07:51:54.103Z,3.80
2023-02-04T07:53:27.233Z,5.03
2023-02-04T07:55:00.666Z,4.65
2023-02-04T07:56:33.948Z,7.63
2023-02-04T07:58:07.315Z,5.55
2023-02-04T07:59:40.459Z,6.03
2023-02-04T08:01:14.085Z,7.55
2023-02-04T08:02:47.387Z,6.93
2023-02-04T08:04:20.686Z,11.45
2023-02-04T08:05:53.823Z,7.72
2023-02-04T08:07:28.689Z,6.95
2023-02-04T08:09:01.797Z,6.97
2023-02-04T08:10:35.282Z,7.90
2023-02-04T08:12:08.482Z,5.82
2023-02-04T08:13:41.638Z,7.25
2023-02-04T08:15:14.787Z,5.80
2023-02-04T08:16:48.033Z,8.18
2023-02-04T08:18:21.142Z,4.57
2023-02-04T08:19:54.748Z,5.00
2023-02-04T08:21:27.841Z,6.63
2023-02-04T08:23:02.665Z,11.07
2023-02-04T08:24:35.777Z,8.77
2023-02-04T08:26:10.549Z,12.18
2023-02-04T08:27:43.787Z,10.38
2023-02-04T08:29:17.138Z,22.95
2023-02-04T08:30:50.350Z,17.13
2023-02-04T08:32:23.761Z,17.45
2023-02-04T08:33:56.832Z,7.50
2023-02-04T08:35:34.673Z,9.95
2023-02-04T08:37:08.054Z,22.23
2023-02-04T08:38:42.866Z,14.73
2023-02-04T08:40:16.436Z,24.67
2023-02-04T08:41:51.353Z,20.08
2023-02-04T08:43:24.491Z,23.42
2023-02-04T08:44:57.683Z,18.70
2023-02-04T08:46:30.911Z,18.30
2023-02-04T08:48:04.258Z,16.30
2023-02-04T08:49:37.435Z,22.35
2023-02-04T08:51:10.640Z,11.68
2023-02-04T08:52:43.709Z,5.03
2023-02-04T08:54:18.507Z,11.57
2023-02-04T08:55:51.609Z,16.80
2023-02-04T08:57:25.022Z,11.73
2023-02-04T08:58:58.195Z,30.50
2023-02-04T09:00:31.880Z,35.17
2023-02-04T09:02:05.263Z,20.27
2023-02-04T09:03:38.870Z,22.45
2023-02-04T09:05:11.014Z,32.20
2023-02-04T09:06:44.785Z,32.97
2023-02-04T09:08:16.913Z,31.08
2023-02-04T09:09:51.647Z,8.32
2023-02-04T09:11:24.792Z,23.05
2023-02-04T09:12:58.067Z,23.80
2023-02-04T09:14:31.201Z,14.48
2023-02-04T09:16:04.584Z,12.68
2023-02-04T09:17:38.412Z,14.25
2023-02-04T09:19:16.337Z,7.57
2023-02-04T09:20:49.841Z,5.32
2023-02-04T09:22:23.025Z,6.28
2023-02-04T09:23:56.338Z,10.48
2023-02-04T09:25:30.959Z,6.38
2023-02-04T09:27:04.163Z,6.65
2023-02-04T09:28:37.359Z,6.70
2023-02-04T09:30:11.544Z,8.27
2023-02-04T09:31:44.917Z,3.42
2023-02-04T09:33:18.222Z,20.08
2023-02-04T09:34:51.467Z,10.38
2023-02-04T09:36:28.529Z,13.00
2023-02-04T09:38:03.003Z,6.40
2023-02-04T09:39:36.174Z,4.72
2023-02-04T09:41:13.391Z,3.75
2023-02-04T09:42:49.827Z,4.90
2023-02-04T09:44:26.042Z,7.40
2023-02-04T09:46:00.051Z,6.88
2023-02-04T09:47:33.394Z,6.65
2023-02-04T09:49:06.632Z,10.07
2023-02-04T09:50:39.843Z,7.57
2023-02-04T09:52:15.122Z,10.20
2023-02-04T09:53:49.756Z,12.02
2023-02-04T09:55:27.127Z,6.38
2023-02-04T09:57:01.893Z,6.50
2023-02-04T09:58:36.485Z,6.97
2023-02-04T10:00:17.257Z,21.50
2023-02-04T10:01:56.574Z,6.82
2023-02-04T10:03:30.326Z,6.70
2023-02-04T10:05:03.541Z,6.95
2023-02-04T10:06:37.709Z,7.65
2023-02-04T10:08:15.454Z,5.90
2023-02-04T10:09:49.535Z,5.35
2023-02-04T10:11:25.011Z,5.38
2023-02-04T10:13:03.837Z,6.40
2023-02-04T10:14:36.960Z,15.10
2023-02-04T10:16:16.037Z,8.00
2023-02-04T10:17:50.638Z,12.23
2023-02-04T10:19:24.787Z,9.43
2023-02-04T10:21:02.087Z,16.25
2023-02-04T10:22:35.223Z,12.95
2023-02-04T10:24:13.586Z,5.03
2023-02-04T10:25:47.025Z,5.03
2023-02-04T10:27:20.223Z,6.47
2023-02-04T10:28:59.936Z,6.22
2023-02-04T10:30:41.559Z,4.20
2023-02-04T10:32:28.903Z,1.52
2023-02-04T10:34:12.453Z,4.30
2023-02-04T10:35:47.743Z,5.25
2023-02-04T10:37:22.978Z,3.70
2023-02-04T10:39:01.762Z,4.20
2023-02-04T10:40:36.481Z,6.88
2023-02-04T10:42:22.517Z,8.05
2023-02-04T10:44:05.497Z,9.98
2023-02-04T10:45:39.935Z,11.48
2023-02-04T10:47:18.595Z,2.70
2023-02-04T10:48:51.759Z,3.90
2023-02-04T10:50:26.856Z,2.15
2023-02-04T10:52:00.191Z,3.38
2023-02-04T10:53:50.766Z,7.22
2023-02-04T10:55:25.479Z,4.03
2023-02-04T10:56:59.825Z,68.03
2023-02-04T10:58:33.700Z,9.32
2023-02-04T11:00:17.684Z,20.40
2023-02-04T11:01:50.922Z,3.90
2023-02-04T11:03:26.159Z,1.90
2023-02-04T11:04:59.542Z,2.35
2023-02-04T11:06:33.536Z,1.52
2023-02-04T11:08:21.960Z,1.65
2023-02-04T11:09:56.029Z,2.60
2023-02-04T11:11:29.265Z,2.08
2023-02-04T11:13:05.030Z,2.40
2023-02-04T11:14:38.192Z,2.65
2023-02-04T11:16:27.034Z,3.60
2023-02-04T11:18:04.640Z,3.88
2023-02-04T11:19:40.077Z,3.22
2023-02-04T11:21:18.712Z,2.42
2023-02-04T11:22:54.271Z,2.83
2023-02-04T11:24:33.893Z,2.35
2023-02-04T11:26:10.268Z,2.50
2023-02-04T11:27:43.902Z,3.83
2023-02-04T11:29:35.110Z,1.55
2023-02-04T11:31:26.623Z,3.30
2023-02-04T11:33:03.658Z,7.05
2023-02-04T11:34:48.936Z,1.90
2023-02-04T11:36:22.156Z,3.05
2023-02-04T11:37:56.083Z,2.22
2023-02-04T11:39:33.267Z,3.47
2023-02-04T11:41:07.461Z,1.00
2023-02-04T11:42:42.838Z,7.63
2023-02-04T11:44:17.462Z,7.05
2023-02-04T11:46:01.598Z,1.38
2023-02-04T11:47:37.862Z,3.75
2023-02-04T11:49:19.458Z,4.07
2023-02-04T11:50:57.877Z,1.02
2023-02-04T11:52:29.980Z,3.95
2023-02-04T11:54:03.209Z,4.70
2023-02-04T11:55:47.041Z,7.45
2023-02-04T11:57:20.582Z,5.43
2023-02-04T11:58:57.954Z,3.30
2023-02-04T12:00:34.057Z,2.28
2023-02-04T12:02:16.178Z,2.70
2023-02-04T12:03:52.396Z,11.13
2023-02-04T12:05:37.668Z,4.15
2023-02-04T12:07:14.243Z,2.40
2023-02-04T12:08:47.354Z,4.60
2023-02-04T12:10:27.894Z,6.72
2023-02-04T12:12:02.909Z,5.75
2023-02-04T12:13:46.634Z,3.50
2023-02-04T12:15:25.227Z,4.30
2023-02-04T12:16:59.016Z,2.92
2023-02-04T12:18:34.174Z,1.98
2023-02-04T12:20:09.712Z,1.05
2023-02-04T12:21:42.822Z,3.03
2023-02-04T12:23:16.323Z,1.25
2023-02-04T12:24:49.685Z,2.53
2023-02-04T12:26:22.828Z,3.08
2023-02-04T12:27:56.454Z,2.90
2023-02-04T12:29:29.911Z,1.65
2023-02-04T12:31:03.192Z,2.92
2023-02-04T12:32:36.397Z,1.15
2023-02-04T12:34:09.469Z,1.20
2023-02-04T12:35:44.489Z,0.90
2023-02-04T12:37:17.666Z,1.83
2023-02-04T12:38:50.841Z,0.70
2023-02-04T12:40:24.178Z,0.60
2023-02-04T12:41:57.725Z,2.88
2023-02-04T12:43:31.091Z,2.60
2023-02-04T12:45:04.460Z,1.33
2023-02-04T12:46:37.572Z,4.45
2023-02-04T12:48:11.098Z,1.08
2023-02-04T12:49:44.192Z,5.15
2023-02-04T12:51:18.746Z,0.77
2023-02-04T12:52:53.031Z,2.22
2023-02-04T12:54:26.450Z,1.73
2023-02-04T12:55:59.642Z,1.20
2023-02-04T12:57:33.048Z,3.22
2023-02-04T12:59:06.433Z,1.77
2023-02-04T13:00:39.874Z,2.47
2023-02-04T13:02:13.148Z,4.85
2023-02-04T13:03:46.373Z,2.67
2023-02-04T13:05:19.711Z,2.40
2023-02-04T13:06:54.507Z,1.08
2023-02-04T13:08:27.721Z,2.90
2023-02-04T13:10:01.041Z,2.08
2023-02-04T13:11:34.145Z,1.33
2023-02-04T13:13:07.544Z,1.52
2023-02-04T13:14:41.024Z,1.70
2023-02-04T13:16:14.221Z,4.50
2023-02-04T13:17:47.381Z,4.15
2023-02-04T13:19:20.829Z,6.90
2023-02-04T13:20:54.127Z,12.40
2023-02-04T13:22:28.975Z,3.95
2023-02-04T13:24:02.155Z,4.95
2023-02-04T13:25:35.588Z,1.50
2023-02-04T13:27:08.734Z,2.42
2023-02-04T13:28:41.937Z,2.42
2023-02-04T13:30:16.191Z,0.95
2023-02-04T13:31:49.952Z,0.60
2023-02-04T13:33:23.271Z,3.40
2023-02-04T13:34:56.428Z,0.75
2023-02-04T13:36:30.467Z,1.65
2023-02-04T13:38:05.322Z,2.22
2023-02-04T13:39:38.551Z,3.28
2023-02-04T13:41:11.941Z,2.15
2023-02-04T13:42:45.035Z,3.50
2023-02-04T13:44:18.628Z,6.03
2023-02-04T13:45:51.864Z,3.50
2023-02-04T13:47:25.089Z,1.92
2023-02-04T13:48:58.307Z,2.45
2023-02-04T13:50:32.136Z,3.10
2023-02-04T13:52:05.668Z,9.85
2023-02-04T13:53:40.216Z,11.13
2023-02-04T13:55:13.333Z,4.68
2023-02-04T13:56:50.967Z,5.38
2023-02-04T13:58:24.107Z,2.05
2023-02-04T13:59:57.252Z,4.10
2023-02-04T14:01:30.398Z,1.92
2023-02-04T14:03:03.978Z,2.63
2023-02-04T14:04:37.099Z,2.80
2023-02-04T14:06:10.415Z,2.00
2023-02-04T14:07:43.470Z,1.50
2023-02-04T14:09:19.004Z,2.80
2023-02-04T14:10:52.054Z,4.25
2023-02-04T14:12:25.193Z,2.00
2023-02-04T14:13:58.445Z,1.60
2023-02-04T14:15:32.191Z,2.15
2023-02-04T14:17:05.254Z,6.45
2023-02-04T14:18:38.415Z,2.90
2023-02-04T14:20:12.463Z,4.07
2023-02-04T14:21:46.815Z,2.45
2023-02-04T14:23:19.943Z,2.42
2023-02-04T14:24:54.633Z,1.95
2023-02-04T14:26:27.708Z,6.85
2023-02-04T14:28:01.441Z,3.85
2023-02-04T14:29:34.894Z,5.70
2023-02-04T14:31:08.031Z,2.20
2023-02-04T14:32:41.103Z,2.47
2023-02-04T14:34:14.654Z,3.75
2023-02-04T14:35:47.769Z,1.20
2023-02-04T14:37:20.976Z,4.00
2023-02-04T14:38:54.062Z,1.70
2023-02-04T14:40:32.296Z,3.65
2023-02-04T14:42:05.970Z,3.63
2023-02-04T14:43:39.043Z,2.05
2023-02-04T14:45:13.704Z,1.40
2023-02-04T14:46:48.274Z,2.95
2023-02-04T14:48:21.568Z,1.40
2023-02-04T14:49:54.650Z,0.90
2023-02-04T14:51:27.782Z,3.30
2023-02-04T14:53:01.390Z,0.95
2023-02-04T14:54:34.510Z,2.75
2023-02-04T14:56:09.277Z,2.53
2023-02-04T14:57:42.396Z,4.00
2023-02-04T14:59:15.740Z,3.85
2023-02-04T15:00:48.886Z,8.25
2023-02-04T15:02:22.714Z,5.35
2023-02-04T15:03:55.915Z,4.05
2023-02-04T15:05:29.571Z,2.45
2023-02-04T15:07:02.691Z,1.50
2023-02-04T15:08:35.858Z,3.53
2023-02-04T15:10:10.884Z,2.10
2023-02-04T15:11:45.941Z,5.25
2023-02-04T15:13:19.036Z,4.00
2023-02-04T15:14:52.187Z,6.55
2023-02-04T15:16:25.358Z,3.58
2023-02-04T15:17:59.197Z,3.35
2023-02-04T15:19:32.373Z,4.93
2023-02-04T15:21:05.776Z,1.90
2023-02-04T15:22:39.000Z,1.25
2023-02-04T15:24:12.802Z,2.95
2023-02-04T15:25:47.208Z,4.10
2023-02-04T15:27:21.770Z,2.08
2023-02-04T15:28:56.076Z,5.45
2023-02-04T15:30:29.554Z,3.85
2023-02-04T15:32:01.944Z,3.33
2023-02-04T15:33:35.088Z,4.20
2023-02-04T15:35:08.956Z,4.13
2023-02-04T15:36:42.467Z,2.67
2023-02-04T15:38:15.690Z,2.60
2023-02-04T15:39:48.882Z,3.80
2023-02-04T15:43:15.191Z,1.02
2023-02-04T15:44:48.340Z,1.48
2023-02-04T15:46:21.509Z,4.13
2023-02-04T15:47:54.623Z,1.52
2023-02-04T15:49:27.777Z,2.30
2023-02-04T15:51:01.044Z,1.20
2023-02-04T15:52:34.240Z,1.00
2023-02-04T15:54:07.425Z,5.78
2023-02-04T15:55:40.768Z,4.18
2023-02-04T15:57:13.954Z,2.38
2023-02-04T15:58:48.566Z,1.25
2023-02-04T16:00:22.921Z,1.50
2023-02-04T16:01:56.464Z,0.82
2023-02-04T16:03:29.659Z,2.40
2023-02-04T16:05:02.970Z,1.10
2023-02-04T16:06:36.106Z,2.20
2023-02-04T16:08:09.457Z,1.58
2023-02-04T16:09:43.912Z,3.03
2023-02-04T16:11:17.526Z,2.97
2023-02-04T16:12:51.454Z,1.67
2023-02-04T16:14:26.311Z,1.17
2023-02-04T16:15:59.606Z,1.75
2023-02-04T16:17:32.784Z,1.75
2023-02-04T16:19:05.904Z,3.92
2023-02-04T16:20:39.373Z,6.93
2023-02-04T16:22:12.523Z,1.20
2023-02-04T16:23:45.594Z,1.25
2023-02-04T16:25:18.934Z,2.63
2023-02-04T16:26:52.407Z,2.90
2023-02-04T16:28:25.546Z,1.70
2023-02-04T16:30:00.169Z,2.72
2023-02-04T16:31:33.360Z,3.85
2023-02-04T16:33:07.062Z,2.65
2023-02-04T16:34:40.176Z,1.30
2023-02-04T16:36:13.839Z,3.15
2023-02-04T16:37:47.014Z,2.20
2023-02-04T16:39:20.505Z,3.75
2023-02-04T16:40:53.697Z,2.28
2023-02-04T16:42:26.949Z,2.17
2023-02-04T16:44:00.378Z,3.35
2023-02-04T16:45:35.206Z,2.67
2023-02-04T16:47:10.008Z,4.18
2023-02-04T16:48:43.244Z,6.25
2023-02-04T16:50:16.710Z,4.88
2023-02-04T16:51:50.077Z,5.75
2023-02-04T16:53:23.369Z,5.32
2023-02-04T16:54:56.609Z,4.97
2023-02-04T16:56:35.235Z,4.60
2023-02-04T16:58:08.893Z,6.68
2023-02-04T16:59:42.137Z,3.08
2023-02-04T17:01:17.440Z,2.38
2023-02-04T17:02:50.689Z,4.68
2023-02-04T17:04:24.283Z,3.65
2023-02-04T17:05:57.490Z,1.85
2023-02-04T17:07:30.623Z,2.70
2023-02-04T17:09:03.804Z,3.72
2023-02-04T17:10:55.134Z,5.55
2023-02-04T17:12:28.259Z,4.93
2023-02-04T17:14:03.506Z,3.75
2023-02-04T17:15:36.656Z,4.18
2023-02-04T17:17:11.696Z,7.82
2023-02-04T17:18:43.776Z,5.55
2023-02-04T17:20:17.075Z,3.85
2023-02-04T17:21:50.272Z,3.90
2023-02-04T17:23:23.684Z,5.32
2023-02-04T17:24:56.913Z,3.05
2023-02-04T17:26:30.105Z,8.15
2023-02-04T17:28:03.371Z,4.13
2023-02-04T17:29:36.707Z,5.18
2023-02-04T17:31:10.016Z,2.65
2023-02-04T17:32:45.595Z,7.65
2023-02-04T17:34:18.954Z,4.43
2023-02-04T17:35:52.388Z,11.15
2023-02-04T17:37:26.112Z,8.18
2023-02-04T17:38:59.390Z,9.35
2023-02-04T17:40:33.201Z,7.53
2023-02-04T17:42:06.922Z,9.63
2023-02-04T17:43:40.088Z,10.27
2023-02-04T17:45:13.911Z,8.60
2023-02-04T17:46:47.070Z,9.23
2023-02-04T17:48:21.765Z,6.85
2023-02-04T17:49:54.870Z,12.02
2023-02-04T17:51:28.223Z,3.88
2023-02-04T17:53:01.523Z,8.73
2023-02-04T17:54:35.243Z,11.57
2023-02-04T17:56:12.028Z,10.63
2023-02-04T17:57:45.716Z,9.68
2023-02-04T17:59:18.930Z,5.38
2023-02-04T18:00:53.730Z,6.05
2023-02-04T18:02:29.738Z,17.33
2023-02-04T18:04:05.443Z,13.80
2023-02-04T18:05:42.703Z,6.57
2023-02-04T18:07:16.101Z,18.42
2023-02-04T18:08:49.892Z,13.65
2023-02-04T18:10:29.375Z,26.27
2023-02-04T18:12:03.528Z,24.33
2023-02-04T18:13:36.887Z,22.08
2023-02-04T18:15:25.194Z,19.92
2023-02-04T18:17:00.733Z,3.20
2023-02-04T18:18:37.700Z,11.50
2023-02-04T18:20:19.480Z,3.17
2023-02-04T18:21:52.755Z,4.72
2023-02-04T18:23:28.747Z,5.95
2023-02-04T18:25:03.405Z,10.30
2023-02-04T18:26:41.157Z,9.27
2023-02-04T18:28:17.892Z,5.30
2023-02-04T18:29:55.477Z,6.50
2023-02-04T18:31:35.890Z,5.35
2023-02-04T18:33:19.388Z,6.00
2023-02-04T18:34:54.496Z,5.45
2023-02-04T18:36:29.389Z,8.60
2023-02-04T18:38:03.234Z,10.30
2023-02-04T18:39:36.486Z,6.72
2023-02-04T18:41:27.683Z,5.53
2023-02-04T18:43:15.152Z,4.82
2023-02-04T18:44:49.168Z,7.15
2023-02-04T18:46:26.061Z,9.10
2023-02-04T18:48:01.402Z,13.10
2023-02-04T18:49:38.263Z,11.35
2023-02-04T18:51:22.574Z,6.85
2023-02-04T18:52:58.201Z,7.28
2023-02-04T18:54:36.653Z,8.02
2023-02-04T18:56:15.927Z,15.57
2023-02-04T18:57:49.029Z,19.15
2023-02-04T18:59:25.003Z,8.00
2023-02-04T19:01:00.686Z,5.57
2023-02-04T19:02:39.637Z,9.25
2023-02-04T19:04:19.522Z,11.43
2023-02-04T19:05:54.152Z,12.85
2023-02-04T19:07:28.460Z,12.23
2023-02-04T19:09:17.136Z,8.10
2023-02-04T19:10:51.434Z,10.65
2023-02-04T19:12:26.275Z,4.00
2023-02-04T19:14:02.813Z,7.15
2023-02-04T19:15:41.532Z,7.93
2023-02-04T19:17:24.317Z,8.18
2023-02-04T19:18:58.128Z,4.30
2023-02-04T19:20:31.380Z,8.00
2023-02-04T19:22:17.130Z,7.30
2023-02-04T19:23:52.172Z,5.43
2023-02-04T19:25:30.911Z,2.85
2023-02-04T19:27:25.742Z,5.50
2023-02-04T19:28:58.992Z,8.63
2023-02-04T19:30:46.545Z,7.35
2023-02-04T19:32:29.243Z,7.53
2023-02-04T19:34:17.915Z,8.52
2023-02-04T19:35:51.294Z,3.92
2023-02-04T19:37:26.666Z,5.30
2023-02-04T19:39:02.837Z,5.57
2023-02-04T19:40:39.611Z,5.80
2023-02-04T19:42:28.232Z,6.45
2023-02-04T19:44:38.951Z,10.32
2023-02-04T19:46:24.101Z,5.50
2023-02-04T19:47:58.487Z,7.32
2023-02-04T19:49:37.137Z,7.78
2023-02-04T19:51:25.977Z,9.52
2023-02-04T19:53:02.774Z,11.02
2023-02-04T19:54:39.661Z,5.40
2023-02-04T19:56:30.932Z,9.95
2023-02-04T19:58:14.508Z,8.20
2023-02-04T19:59:47.751Z,11.52
2023-02-04T20:01:21.041Z,7.30
2023-02-04T20:02:54.404Z,13.43
2023-02-04T20:04:36.869Z,14.45
2023-02-04T20:06:27.710Z,8.23
2023-02-04T20:08:09.065Z,10.20
2023-02-04T20:09:42.702Z,7.18
2023-02-04T20:11:57.290Z,8.02
2023-02-04T20:13:33.022Z,3.45
2023-02-04T20:15:17.205Z,2.92
2023-02-04T20:16:52.124Z,2.33
2023-02-04T20:18:26.530Z,21.73
2023-02-04T20:20:16.292Z,7.32
2023-02-04T20:22:02.856Z,3.38
2023-02-04T20:23:37.940Z,6.65
2023-02-04T20:25:41.771Z,6.85
2023-02-04T20:27:20.807Z,3.30
2023-02-04T20:28:55.294Z,3.53
2023-02-04T20:30:29.999Z,4.35
2023-02-04T20:32:15.773Z,3.35
2023-02-04T20:33:51.312Z,8.45
2023-02-04T20:36:09.891Z,8.20
2023-02-04T20:37:44.481Z,4.65
2023-02-04T20:39:39.282Z,6.30
2023-02-04T20:41:16.276Z,4.20
2023-02-04T20:42:53.042Z,2.60
2023-02-04T20:44:29.733Z,5.07
2023-02-04T20:46:04.836Z,5.45
2023-02-04T20:47:38.122Z,6.40
2023-02-04T20:49:22.253Z,6.05
2023-02-04T20:50:56.877Z,5.57
2023-02-04T20:53:03.625Z,3.97